createdAt,value
2018-08-25T00:01:13.784Z,15.13
2018-08-25T00:03:43.572Z,14.63
2018-08-25T00:06:13.378Z,15.03
2018-08-25T00:08:42.139Z,19.60
2018-08-25T00:11:11.968Z,14.57
2018-08-25T00:13:45.080Z,15.87
2018-08-25T00:16:14.036Z,15.50
2018-08-25T00:18:42.832Z,17.23
2018-08-25T00:21:12.675Z,19.97
2018-08-25T00:23:41.459Z,14.30
2018-08-25T00:26:14.223Z,14.93
2018-08-25T00:28:56.819Z,16.07
2018-08-25T00:31:31.751Z,15.83
2018-08-25T00:34:05.183Z,16.33
2018-08-25T00:36:33.972Z,16.53
2018-08-25T00:39:02.796Z,15.17
2018-08-25T00:41:33.566Z,14.60
2018-08-25T00:44:08.089Z,16.63
2018-08-25T00:46:36.916Z,14.87
2018-08-25T00:49:07.732Z,16.73
2018-08-25T00:51:37.564Z,15.17
2018-08-25T00:54:06.440Z,17.67
2018-08-25T00:56:35.252Z,15.40
2018-08-25T00:59:08.240Z,17.37
2018-08-25T01:01:37.085Z,16.83
2018-08-25T01:04:07.940Z,16.73
2018-08-25T01:06:37.732Z,15.10
2018-08-25T01:09:08.848Z,15.30
2018-08-25T01:11:41.156Z,16.80
2018-08-25T01:14:15.641Z,18.77
2018-08-25T01:16:45.476Z,15.35
2018-08-25T01:19:16.535Z,14.80
2018-08-25T01:21:46.320Z,14.87
2018-08-25T01:24:24.879Z,15.67
2018-08-25T01:26:54.692Z,18.10
2018-08-25T01:29:29.440Z,19.30
2018-08-25T01:31:58.296Z,21.68
2018-08-25T01:34:28.232Z,15.75
2018-08-25T01:36:57.600Z,15.53
2018-08-25T01:39:26.392Z,16.97
2018-08-25T01:41:55.184Z,16.57
2018-08-25T01:44:23.967Z,16.83
2018-08-25T01:46:53.867Z,16.00
2018-08-25T01:49:28.315Z,19.70
2018-08-25T01:51:58.135Z,17.20
2018-08-25T01:54:27.051Z,14.70
2018-08-25T01:56:55.902Z,19.53
2018-08-25T01:59:24.695Z,23.23
2018-08-25T02:01:56.743Z,16.73
2018-08-25T02:04:27.584Z,19.05
2018-08-25T02:06:58.468Z,15.60
2018-08-25T02:09:36.863Z,20.63
2018-08-25T02:12:10.148Z,17.05
2018-08-25T02:14:57.367Z,17.20
2018-08-25T02:17:29.939Z,17.35
2018-08-25T02:20:04.564Z,15.30
2018-08-25T02:22:33.539Z,17.93
2018-08-25T02:25:02.379Z,18.60
2018-08-25T02:27:36.317Z,13.20
2018-08-25T02:30:08.420Z,16.13
2018-08-25T02:32:37.277Z,14.03
2018-08-25T02:35:11.131Z,12.07
2018-08-25T02:37:39.975Z,15.63
2018-08-25T02:40:12.419Z,13.63
2018-08-25T02:42:42.275Z,11.13
2018-08-25T02:45:12.088Z,13.10
2018-08-25T02:47:40.847Z,12.40
2018-08-25T02:50:13.439Z,12.23
2018-08-25T02:52:42.207Z,10.73
2018-08-25T02:55:11.044Z,16.80
2018-08-25T02:57:39.903Z,14.23
2018-08-25T03:00:14.356Z,12.53
2018-08-25T03:02:43.133Z,11.97
2018-08-25T03:05:11.933Z,11.67
2018-08-25T03:07:40.784Z,12.03
2018-08-25T03:10:09.567Z,10.67
2018-08-25T03:12:40.433Z,14.43
2018-08-25T03:15:09.224Z,11.87
2018-08-25T03:17:37.990Z,12.03
2018-08-25T03:20:06.859Z,14.10
2018-08-25T03:22:37.755Z,13.07
2018-08-25T03:25:06.611Z,13.00
2018-08-25T03:27:39.276Z,19.45
2018-08-25T03:30:08.084Z,14.53
2018-08-25T03:32:43.662Z,12.27
2018-08-25T03:35:17.047Z,12.80
2018-08-25T03:37:49.099Z,13.80
2018-08-25T03:40:17.948Z,15.97
2018-08-25T03:42:46.791Z,10.93
2018-08-25T03:45:15.635Z,12.97
2018-08-25T03:47:44.443Z,11.50
2018-08-25T03:50:13.248Z,13.90
2018-08-25T03:52:56.711Z,10.20
2018-08-25T03:55:25.529Z,13.07
2018-08-25T03:57:57.891Z,9.80
2018-08-25T04:00:27.727Z,11.33
2018-08-25T04:02:57.555Z,13.00
2018-08-25T04:05:26.432Z,11.57
2018-08-25T04:07:55.223Z,15.58
2018-08-25T04:10:27.179Z,8.90
2018-08-25T04:12:56.003Z,9.37
2018-08-25T04:15:25.806Z,8.93
2018-08-25T04:17:58.603Z,13.43
2018-08-25T04:20:39.812Z,8.83
2018-08-25T04:23:13.668Z,10.83
2018-08-25T04:25:42.563Z,10.10
2018-08-25T04:28:16.748Z,10.40
2018-08-25T04:30:46.548Z,11.10
2018-08-25T04:33:29.076Z,12.27
2018-08-25T04:35:58.751Z,10.07
2018-08-25T04:38:30.864Z,11.93
2018-08-25T04:41:02.170Z,11.73
2018-08-25T04:43:43.083Z,8.37
2018-08-25T04:46:12.880Z,17.23
2018-08-25T04:48:46.203Z,11.03
2018-08-25T04:51:16.256Z,7.60
2018-08-25T04:53:48.871Z,15.90
2018-08-25T04:56:27.407Z,8.90
2018-08-25T04:58:57.172Z,13.33
2018-08-25T05:01:29.696Z,7.70
2018-08-25T05:03:59.455Z,19.93
2018-08-25T05:06:38.848Z,10.00
2018-08-25T05:09:09.191Z,11.20
2018-08-25T05:11:56.483Z,7.73
2018-08-25T05:14:39.011Z,8.83
2018-08-25T05:17:12.061Z,7.20
2018-08-25T05:19:50.627Z,9.00
2018-08-25T05:22:21.395Z,11.70
2018-08-25T05:24:50.171Z,9.20
2018-08-25T05:27:18.964Z,9.07
2018-08-25T05:29:57.715Z,15.10
2018-08-25T05:32:27.532Z,8.87
2018-08-25T05:34:57.335Z,7.87
2018-08-25T05:37:29.791Z,7.50
2018-08-25T05:39:58.559Z,5.30
2018-08-25T05:42:37.107Z,13.20
2018-08-25T05:45:20.368Z,8.83
2018-08-25T05:47:52.368Z,7.53
2018-08-25T05:50:26.328Z,5.23
2018-08-25T05:52:56.127Z,9.00
2018-08-25T05:55:24.894Z,6.57
2018-08-25T05:57:57.184Z,14.13
2018-08-25T06:00:27.020Z,5.77
2018-08-25T06:02:56.791Z,5.60
2018-08-25T06:05:25.584Z,6.70
2018-08-25T06:07:57.943Z,7.00
2018-08-25T06:10:32.328Z,5.10
2018-08-25T06:13:01.156Z,11.70
2018-08-25T06:15:47.816Z,7.23
2018-08-25T06:18:26.667Z,10.73
2018-08-25T06:20:57.505Z,4.20
2018-08-25T06:23:28.376Z,9.17
2018-08-25T06:25:57.116Z,9.83
2018-08-25T06:34:18.275Z,5.50
2018-08-25T06:39:40.731Z,4.63
2018-08-25T06:42:11.679Z,5.80
2018-08-25T06:44:45.060Z,8.43
2018-08-25T06:47:18.871Z,5.57
2018-08-25T06:49:50.763Z,4.50
2018-08-25T06:52:30.935Z,6.63
2018-08-25T06:57:58.075Z,7.23
2018-08-25T07:00:26.835Z,6.03
2018-08-25T07:02:57.583Z,6.73
2018-08-25T07:05:26.387Z,6.57
2018-08-25T07:08:00.775Z,12.40
2018-08-25T07:10:34.407Z,7.33
2018-08-25T07:13:19.423Z,7.47
2018-08-25T07:15:53.687Z,10.70
2018-08-25T07:18:23.500Z,6.83
2018-08-25T07:20:56.011Z,7.90
2018-08-25T07:23:44.363Z,8.13
2018-08-25T07:26:13.246Z,6.60
2018-08-25T07:28:42.999Z,10.63
2018-08-25T07:31:12.822Z,6.80
2018-08-25T07:33:49.027Z,9.63
2018-08-25T07:36:17.857Z,8.80
2018-08-25T07:38:49.723Z,7.60
2018-08-25T07:41:18.514Z,5.40
2018-08-25T07:43:49.340Z,8.83
2018-08-25T07:46:18.167Z,8.53
2018-08-25T07:48:52.447Z,7.33
2018-08-25T07:51:26.554Z,9.93
2018-08-25T07:53:56.391Z,8.70
2018-08-25T07:56:30.527Z,7.37
2018-08-25T07:59:15.507Z,10.33
2018-08-25T08:01:51.752Z,10.10
2018-08-25T08:04:21.535Z,6.37
2018-08-25T08:06:50.303Z,7.10
2018-08-25T08:09:24.347Z,7.47
2018-08-25T08:11:57.340Z,7.93
2018-08-25T08:14:26.104Z,6.00
2018-08-25T08:16:56.059Z,6.43
2018-08-25T08:19:42.688Z,6.00
2018-08-25T08:22:13.455Z,6.17
2018-08-25T08:24:42.267Z,8.70
2018-08-25T08:27:14.764Z,7.27
2018-08-25T08:29:43.631Z,7.63
2018-08-25T08:32:16.307Z,9.33
2018-08-25T08:34:52.735Z,5.33
2018-08-25T08:37:22.619Z,12.67
2018-08-25T08:39:51.450Z,9.60
2018-08-25T08:42:20.312Z,6.10
2018-08-25T08:44:50.055Z,8.77
2018-08-25T08:47:24.037Z,5.00
2018-08-25T08:49:57.452Z,10.67
2018-08-25T08:52:28.927Z,11.03
2018-08-25T08:55:00.067Z,7.63
2018-08-25T08:57:32.022Z,10.53
2018-08-25T09:00:00.823Z,6.30
2018-08-25T09:02:49.921Z,7.43
2018-08-25T09:05:20.711Z,5.23
2018-08-25T09:07:54.619Z,6.47
2018-08-25T09:10:23.327Z,9.23
2018-08-25T09:12:53.106Z,7.97
2018-08-25T09:15:21.927Z,8.77
2018-08-25T09:17:56.426Z,8.73
2018-08-25T09:20:26.227Z,5.47
2018-08-25T09:22:56.962Z,9.53
2018-08-25T09:25:29.454Z,7.13
2018-08-25T09:27:58.235Z,5.67
2018-08-25T09:30:27.002Z,7.90
2018-08-25T09:32:55.804Z,8.00
2018-08-25T09:35:29.602Z,8.03
2018-08-25T09:38:10.756Z,8.90
2018-08-25T09:40:40.507Z,8.00
2018-08-25T09:43:19.039Z,6.53
2018-08-25T09:45:52.659Z,6.37
2018-08-25T09:48:22.467Z,5.63
2018-08-25T09:50:52.235Z,7.17
2018-08-25T09:53:21.217Z,9.20
2018-08-25T09:55:53.787Z,7.77
2018-08-25T09:58:27.760Z,11.67
2018-08-25T10:01:01.715Z,8.47
2018-08-25T10:03:30.517Z,7.30
2018-08-25T10:06:00.323Z,10.10
2018-08-25T10:08:41.237Z,11.80
2018-08-25T10:11:14.975Z,5.70
2018-08-25T10:13:48.191Z,10.47
2018-08-25T10:16:27.814Z,6.80
2018-08-25T10:18:56.559Z,8.70
2018-08-25T10:21:26.334Z,7.40
2018-08-25T10:23:59.315Z,8.10
2018-08-25T10:26:30.033Z,7.93
2018-08-25T10:29:04.075Z,5.57
2018-08-25T10:31:32.835Z,11.60
2018-08-25T10:34:05.011Z,6.37
2018-08-25T10:36:38.811Z,5.80
2018-08-25T10:39:11.162Z,7.07
2018-08-25T10:41:51.535Z,6.10
2018-08-25T10:44:20.259Z,6.63
2018-08-25T10:46:54.575Z,10.17
2018-08-25T10:49:23.347Z,8.83
2018-08-25T10:51:56.619Z,8.77
2018-08-25T10:54:31.011Z,7.57
2018-08-25T10:57:07.962Z,5.93
2018-08-25T10:59:42.470Z,9.23
2018-08-25T11:02:19.211Z,6.23
2018-08-25T11:04:51.778Z,7.93
2018-08-25T11:10:18.066Z,10.23
2018-08-25T11:12:52.511Z,8.70
2018-08-25T11:15:31.542Z,5.33
2018-08-25T11:18:07.011Z,6.80
2018-08-25T11:20:36.762Z,3.67
2018-08-25T11:23:12.238Z,4.43
2018-08-25T11:25:41.100Z,5.93
2018-08-25T11:28:22.642Z,4.90
2018-08-25T11:30:51.470Z,5.63
2018-08-25T11:33:32.607Z,5.87
2018-08-25T11:36:01.530Z,8.27
2018-08-25T11:38:34.418Z,7.70
2018-08-25T11:41:03.234Z,6.20
2018-08-25T11:43:31.982Z,6.30
2018-08-25T11:46:11.911Z,6.73
2018-08-25T11:48:47.494Z,6.10
2018-08-25T11:51:16.318Z,8.27
2018-08-25T11:53:46.118Z,9.60
2018-08-25T11:56:18.578Z,7.50
2018-08-25T11:58:48.370Z,4.53
2018-08-25T12:01:22.795Z,4.13
2018-08-25T12:03:52.891Z,4.47
2018-08-25T12:06:35.502Z,10.03
2018-08-25T12:09:13.995Z,11.70
2018-08-25T12:12:01.406Z,9.27
2018-08-25T12:14:31.194Z,7.37
2018-08-25T12:17:05.443Z,9.93
2018-08-25T12:19:35.207Z,7.03
2018-08-25T12:22:05.134Z,7.30
2018-08-25T12:24:48.770Z,7.80
2018-08-25T12:27:30.794Z,6.93
2018-08-25T12:29:59.552Z,6.60
2018-08-25T12:32:28.606Z,3.57
2018-08-25T12:34:57.447Z,5.60
2018-08-25T12:37:26.234Z,7.13
2018-08-25T12:39:55.010Z,5.63
2018-08-25T12:42:24.826Z,5.67
2018-08-25T12:44:54.631Z,3.80
2018-08-25T12:47:26.654Z,5.33
2018-08-25T12:49:56.887Z,8.87
2018-08-25T12:52:25.683Z,5.20
2018-08-25T12:54:54.546Z,2.77
2018-08-25T12:57:25.228Z,6.80
2018-08-25T12:59:59.323Z,11.10
2018-08-25T13:02:31.322Z,4.20
2018-08-25T13:05:06.618Z,5.43
2018-08-25T13:07:36.481Z,5.70
2018-08-25T13:10:06.522Z,4.83
2018-08-25T13:12:39.142Z,5.67
2018-08-25T13:15:14.614Z,4.50
2018-08-25T13:17:47.182Z,9.90
2018-08-25T13:20:19.266Z,5.40
2018-08-25T13:22:49.058Z,4.70
2018-08-25T13:25:18.894Z,2.93
2018-08-25T13:27:51.778Z,4.87
2018-08-25T13:30:24.942Z,4.00
2018-08-25T13:32:54.803Z,3.00
2018-08-25T13:38:23.587Z,5.83
2018-08-25T13:40:54.362Z,5.40
2018-08-25T13:43:26.883Z,3.63
2018-08-25T13:45:55.888Z,4.90
2018-08-25T13:48:24.799Z,3.70
2018-08-25T13:50:54.606Z,2.67
2018-08-25T13:53:29.086Z,4.03
2018-08-25T13:55:59.923Z,2.67
2018-08-25T13:58:33.427Z,6.23
2018-08-25T14:01:08.375Z,6.27
2018-08-25T14:03:37.311Z,3.00
2018-08-25T14:06:24.602Z,3.47
2018-08-25T14:08:54.366Z,4.00
2018-08-25T14:11:26.624Z,5.27
2018-08-25T14:13:55.435Z,5.17
2018-08-25T14:16:27.285Z,3.97
2018-08-25T14:18:56.116Z,15.97
2018-08-25T14:21:30.598Z,4.70
2018-08-25T14:24:03.202Z,11.60
2018-08-25T14:26:32.075Z,10.97
2018-08-25T14:29:00.839Z,12.63
2018-08-25T14:31:29.651Z,5.10
2018-08-25T14:34:00.467Z,5.07
2018-08-25T14:36:28.770Z,5.77
2018-08-25T14:38:58.238Z,4.83
2018-08-25T14:41:30.119Z,4.23
2018-08-25T14:43:59.954Z,5.60
2018-08-25T14:46:28.823Z,5.30
2018-08-25T14:48:57.638Z,3.10
2018-08-25T14:51:28.578Z,4.73
2018-08-25T14:53:57.556Z,3.37
2018-08-25T14:56:40.210Z,2.47
2018-08-25T14:59:09.579Z,3.73
2018-08-25T15:01:40.022Z,2.23
2018-08-25T15:04:10.299Z,1.40
2018-08-25T15:06:41.174Z,3.87
2018-08-25T15:09:12.119Z,4.50
2018-08-25T15:11:41.250Z,3.83
2018-08-25T15:14:13.783Z,2.60
2018-08-25T15:16:42.622Z,1.33
2018-08-25T15:19:12.492Z,1.57
2018-08-25T15:21:41.454Z,1.73
2018-08-25T15:24:15.402Z,2.40
2018-08-25T15:26:46.258Z,3.70
2018-08-25T15:29:21.559Z,2.00
2018-08-25T15:31:56.214Z,2.73
2018-08-25T15:34:26.982Z,3.93
2018-08-25T15:36:59.276Z,2.23
2018-08-25T15:39:29.202Z,2.83
2018-08-25T15:42:06.358Z,0.93
2018-08-25T15:44:37.415Z,4.03
2018-08-25T15:47:06.318Z,1.43
2018-08-25T15:49:36.114Z,1.40
2018-08-25T15:52:12.391Z,1.73
2018-08-25T15:54:45.650Z,4.60
2018-08-25T15:57:17.760Z,2.00
2018-08-25T15:59:46.526Z,2.57
2018-08-25T16:02:15.396Z,1.13
2018-08-25T16:04:45.210Z,1.83
2018-08-25T16:07:18.418Z,1.43
2018-08-25T16:09:47.270Z,1.93
2018-08-25T16:12:21.589Z,1.43
2018-08-25T16:14:57.450Z,0.97
2018-08-25T16:17:28.362Z,1.23
2018-08-25T16:21:27.998Z,2.20
2018-08-25T16:23:57.863Z,1.57
2018-08-25T16:26:27.634Z,2.10
2018-08-25T16:28:56.745Z,1.03
2018-08-25T16:31:25.543Z,2.00
2018-08-25T16:33:54.306Z,1.53
2018-08-25T16:36:24.134Z,2.20
2018-08-25T16:38:52.897Z,1.63
2018-08-25T16:41:21.706Z,2.40
2018-08-25T16:43:50.434Z,1.47
2018-08-25T16:46:28.513Z,1.70
2018-08-25T16:48:57.426Z,1.60
2018-08-25T16:51:28.646Z,1.40
2018-08-25T16:53:57.547Z,1.30
2018-08-25T16:56:34.710Z,4.20
2018-08-25T16:59:15.577Z,1.30
2018-08-25T17:01:48.929Z,1.30
2018-08-25T17:04:20.686Z,1.70
2018-08-25T17:07:00.778Z,1.43
2018-08-25T17:09:29.630Z,1.67
2018-08-25T17:12:06.564Z,1.37
2018-08-25T17:14:35.089Z,1.40
2018-08-25T17:17:03.583Z,1.13
2018-08-25T17:19:32.065Z,4.17
2018-08-25T17:22:12.985Z,2.50
2018-08-25T17:24:41.821Z,1.40
2018-08-25T17:27:23.874Z,1.43
2018-08-25T17:29:55.809Z,2.73
2018-08-25T17:32:25.970Z,1.40
2018-08-25T17:34:56.753Z,3.23
2018-08-25T17:37:28.890Z,1.20
2018-08-25T17:39:57.646Z,1.67
2018-08-25T17:42:26.382Z,2.27
2018-08-25T17:44:55.133Z,1.40
2018-08-25T17:47:23.862Z,1.83
2018-08-25T17:49:52.602Z,1.43
2018-08-25T17:52:21.334Z,2.63
2018-08-25T17:54:50.100Z,2.30
2018-08-25T18:00:23.258Z,1.93
2018-08-25T18:02:51.962Z,1.33
2018-08-25T18:05:22.758Z,7.03
2018-08-25T18:07:51.493Z,1.97
2018-08-25T18:10:20.250Z,1.60
2018-08-25T18:12:49.018Z,1.70
2018-08-25T18:15:23.474Z,2.90
2018-08-25T18:17:57.785Z,2.17
2018-08-25T18:20:26.498Z,2.10
2018-08-25T18:22:58.797Z,1.53
2018-08-25T18:25:27.570Z,2.50
2018-08-25T18:28:02.314Z,2.30
2018-08-25T18:30:36.318Z,17.10
2018-08-25T18:33:12.829Z,15.20
2018-08-25T18:36:00.062Z,63.60
2018-08-25T18:38:29.818Z,3.30
2018-08-25T18:40:59.621Z,1.93
2018-08-25T18:43:39.338Z,4.53
2018-08-25T18:46:11.653Z,2.43
2018-08-25T18:48:41.549Z,3.07
2018-08-25T18:51:15.906Z,2.27
2018-08-25T18:53:44.667Z,1.97
2018-08-25T18:56:18.150Z,1.90
2018-08-25T18:58:47.998Z,3.40
2018-08-25T19:01:18.782Z,2.20
2018-08-25T19:03:53.629Z,2.20
2018-08-25T19:06:32.162Z,2.20
2018-08-25T19:09:00.937Z,2.30
2018-08-25T19:11:30.750Z,1.87
2018-08-25T19:13:59.533Z,1.40
2018-08-25T19:16:39.530Z,2.13
2018-08-25T19:19:11.749Z,3.10
2018-08-25T19:21:47.234Z,1.50
2018-08-25T19:24:24.244Z,1.67
2018-08-25T19:26:56.774Z,1.43
2018-08-25T19:29:35.216Z,2.13
2018-08-25T19:32:07.757Z,5.37
2018-08-25T19:34:36.522Z,2.60
2018-08-25T19:37:06.357Z,2.30
2018-08-25T19:39:35.134Z,2.17
2018-08-25T19:42:04.954Z,1.93
2018-08-25T19:44:35.822Z,2.03
2018-08-25T19:47:04.781Z,5.63
2018-08-25T19:49:34.474Z,3.63
2018-08-25T19:52:04.578Z,1.93
2018-08-25T19:54:38.118Z,2.37
2018-08-25T19:57:18.601Z,3.43
2018-08-25T19:59:47.466Z,2.00
2018-08-25T20:02:19.846Z,2.53
2018-08-25T20:04:48.635Z,5.20
2018-08-25T20:07:19.538Z,2.97
2018-08-25T20:09:50.402Z,2.40
2018-08-25T20:12:21.265Z,2.30
2018-08-25T20:15:29.023Z,2.17
2018-08-25T20:17:57.726Z,2.27
2018-08-25T20:20:27.537Z,2.43
2018-08-25T20:22:56.330Z,5.90
2018-08-25T20:25:25.277Z,7.80
2018-08-25T20:27:54.113Z,3.62
2018-08-25T20:30:22.926Z,4.07
2018-08-25T20:32:56.977Z,6.42
2018-08-25T20:35:25.798Z,3.77
2018-08-25T20:37:58.824Z,3.20
2018-08-25T20:41:57.814Z,3.58
2018-08-25T20:44:32.582Z,3.25
2018-08-25T20:47:02.438Z,3.40
2018-08-25T20:49:33.258Z,4.70
2018-08-25T20:52:07.446Z,2.43
2018-08-25T20:54:36.274Z,2.95
2018-08-25T20:57:08.974Z,10.03
2018-08-25T20:59:39.772Z,3.23
2018-08-25T21:02:09.590Z,5.20
2018-08-25T21:04:46.598Z,4.83
2018-08-25T21:07:15.441Z,2.67
2018-08-25T21:09:44.290Z,2.70
2018-08-25T21:12:13.135Z,3.87
2018-08-25T21:14:45.506Z,3.37
2018-08-25T21:17:15.310Z,3.57
2018-08-25T21:19:44.101Z,2.90
2018-08-25T21:22:13.180Z,3.20
2018-08-25T21:24:41.962Z,5.20
2018-08-25T21:27:11.773Z,4.35
2018-08-25T21:29:40.573Z,2.80
2018-08-25T21:32:14.284Z,2.90
2018-08-25T21:34:43.050Z,4.83
2018-08-25T21:37:18.641Z,4.93
2018-08-25T21:39:47.409Z,3.50
2018-08-25T21:42:18.277Z,3.90
2018-08-25T21:44:47.141Z,3.20
2018-08-25T21:47:18.009Z,3.87
2018-08-25T21:49:49.145Z,3.20
2018-08-25T21:52:19.085Z,3.30
2018-08-25T21:54:48.821Z,2.80
2018-08-25T21:57:17.606Z,3.43
2018-08-25T21:59:46.433Z,4.05
2018-08-25T22:02:17.709Z,4.03
2018-08-25T22:04:50.157Z,3.87
2018-08-25T22:07:19.953Z,3.35
2018-08-25T22:09:53.853Z,3.83
2018-08-25T22:12:25.693Z,5.93
2018-08-25T22:14:59.009Z,3.13
2018-08-25T22:17:28.805Z,4.10
2018-08-25T22:20:06.137Z,6.95
2018-08-25T22:22:35.929Z,4.25
2018-08-25T22:25:05.733Z,3.43
2018-08-25T22:27:34.510Z,4.30
2018-08-25T22:30:03.321Z,5.10
2018-08-25T22:32:34.142Z,6.47
2018-08-25T22:35:08.225Z,4.53
2018-08-25T22:37:41.953Z,4.35
2018-08-25T22:40:22.769Z,4.30
2018-08-25T22:42:55.609Z,4.05
2018-08-25T22:45:26.473Z,6.37
2018-08-25T22:47:55.329Z,4.30
2018-08-25T22:50:28.123Z,3.90
2018-08-25T22:52:57.902Z,5.07
2018-08-25T22:55:27.770Z,4.30
2018-08-25T22:57:58.570Z,4.35
2018-08-25T23:00:30.434Z,5.17
2018-08-25T23:03:17.118Z,7.62
2018-08-25T23:05:49.030Z,5.90
2018-08-25T23:08:18.911Z,5.72
2018-08-25T23:10:54.018Z,6.23
2018-08-25T23:13:28.789Z,6.03
2018-08-25T23:15:58.581Z,4.78
2018-08-25T23:18:31.982Z,7.03
2018-08-25T23:21:02.829Z,5.85
2018-08-25T23:23:44.661Z,5.55
2018-08-25T23:26:17.213Z,5.65
2018-08-25T23:28:50.262Z,5.75
2018-08-25T23:31:19.062Z,6.50
2018-08-25T23:34:00.005Z,5.20
2018-08-25T23:36:42.917Z,5.00
2018-08-25T23:39:24.717Z,5.53
2018-08-25T23:41:55.521Z,5.85
2018-08-25T23:44:27.489Z,4.78
2018-08-25T23:46:56.369Z,6.42
2018-08-25T23:49:29.134Z,6.33
2018-08-25T23:52:13.953Z,5.00
2018-08-25T23:54:49.137Z,4.75
2018-08-25T23:57:23.437Z,6.40
2018-08-25T23:59:57.233Z,5.17
